createdAt,value
2022-10-11T12:11:16.620Z,2503.13
2022-10-11T12:12:16.575Z,2520.00
2022-10-11T12:13:16.559Z,2536.88
2022-10-11T12:14:16.540Z,2469.38
2022-10-11T12:15:16.525Z,2475.00
2022-10-11T12:16:16.518Z,2666.25
2022-10-11T12:17:16.498Z,2480.63
2022-10-11T12:18:16.484Z,1608.75
2022-10-11T12:19:16.466Z,1974.38
2022-10-11T12:20:16.449Z,2266.88
2022-10-11T12:21:16.442Z,624.38
2022-10-11T12:23:34.850Z,2098.13
2022-10-11T12:24:34.822Z,1411.88
2022-10-11T12:25:34.809Z,798.75
2022-10-11T12:26:34.801Z,1417.50
2022-10-11T12:27:34.780Z,2508.75
2022-10-11T12:28:34.817Z,945.00
2022-10-11T12:29:34.742Z,1760.63
2022-10-11T12:30:34.725Z,1614.38
2022-10-11T12:31:34.745Z,1755.00
2022-10-11T12:36:41.741Z,984.38
2022-10-11T12:37:41.714Z,2694.38
2022-10-11T12:38:41.700Z,2643.75
2022-10-11T12:39:41.678Z,2587.50
2022-10-11T12:40:41.665Z,2497.50
2022-10-11T12:41:41.635Z,2593.13
2022-10-11T12:42:41.642Z,2598.75
2022-10-11T12:43:41.620Z,2469.38
2022-10-11T12:44:41.598Z,2503.13
2022-10-11T12:45:41.573Z,2480.63
2022-10-11T12:46:41.555Z,2570.63
2022-10-11T12:47:41.561Z,2626.88
2022-10-11T12:48:41.636Z,2244.38
2022-10-11T12:49:41.513Z,2053.13
2022-10-11T12:50:41.491Z,2092.50
2022-10-11T12:51:41.483Z,2081.25
2022-10-11T12:52:41.475Z,2283.75
2022-10-11T12:53:41.446Z,2486.25
2022-10-11T12:54:41.437Z,2193.75
2022-10-11T12:55:41.425Z,2210.63
2022-10-11T12:56:41.398Z,2221.88
2022-10-11T12:57:45.899Z,2171.25
2022-10-11T12:58:41.394Z,2109.38
2022-10-11T12:59:41.363Z,2266.88
2022-10-11T13:00:41.338Z,2238.75
2022-10-11T13:01:41.359Z,2216.25
2022-10-11T13:02:41.326Z,2334.38
2022-10-11T13:03:41.304Z,2345.63
2022-10-11T13:04:41.288Z,2233.13
2022-10-11T13:05:44.779Z,2199.38
2022-10-11T13:06:41.260Z,2154.38
2022-10-11T13:07:41.262Z,2188.13
2022-10-11T13:08:41.233Z,2424.38
2022-10-11T13:09:45.279Z,2626.88
2022-10-11T13:10:41.205Z,2463.75
2022-10-11T13:11:41.182Z,2221.88
2022-10-11T13:12:41.175Z,2025.00
2022-10-11T13:13:41.175Z,2160.00
2022-10-11T13:14:48.915Z,2143.13
2022-10-11T13:15:41.128Z,2008.13
2022-10-11T13:16:41.109Z,2317.50
2022-10-11T13:17:41.094Z,2300.63
2022-10-11T13:18:41.104Z,2086.88
2022-10-11T13:20:42.525Z,2120.63
2022-10-11T13:21:41.043Z,2199.38
2022-10-11T13:22:41.018Z,2193.75
2022-10-11T13:23:41.032Z,2193.75
2022-10-11T13:24:40.995Z,1895.63
2022-10-11T13:25:40.986Z,1951.88
2022-10-11T13:26:40.958Z,2053.13
2022-10-11T13:27:40.946Z,1929.38
2022-10-11T13:28:40.968Z,1996.88
2022-10-11T13:29:40.942Z,2092.50
2022-10-11T13:30:40.899Z,2182.50
2022-10-11T13:31:40.883Z,2126.25
2022-10-11T13:32:40.880Z,1940.63
2022-10-11T13:33:40.867Z,1800.00
2022-10-11T13:34:40.874Z,1586.25
2022-10-11T13:35:40.825Z,1631.25
2022-10-11T13:36:40.850Z,1597.50
2022-10-11T13:37:40.808Z,1743.75
2022-10-11T13:38:40.786Z,1822.50
2022-10-11T13:39:40.786Z,1760.63
2022-10-11T13:40:40.762Z,1620.00
2022-10-11T13:41:40.738Z,1513.13
2022-10-11T13:42:40.737Z,1563.75
2022-10-11T13:43:40.717Z,1518.75
2022-10-11T13:44:40.715Z,1569.38
2022-10-11T13:45:40.724Z,1760.63
2022-10-11T13:46:41.892Z,1811.25
2022-10-11T13:47:40.650Z,1839.38
2022-10-11T13:48:40.638Z,1839.38
2022-10-11T13:49:40.614Z,1906.88
2022-10-11T13:50:40.663Z,1929.38
2022-10-11T13:51:40.614Z,1839.38
2022-10-11T13:52:40.569Z,1845.00
2022-10-11T13:53:40.570Z,1839.38
2022-10-11T13:54:40.557Z,1777.50
2022-10-11T13:55:40.547Z,1749.38
2022-10-11T13:56:40.517Z,1777.50
2022-10-11T13:57:40.521Z,1856.25
2022-10-11T13:58:40.567Z,1783.13
2022-10-11T13:59:40.496Z,1743.75
2022-10-11T14:00:40.478Z,1670.63
2022-10-11T14:01:40.573Z,1051.88
2022-10-11T14:02:40.437Z,461.25
2022-10-11T14:03:40.419Z,748.13
2022-10-11T14:04:40.406Z,1203.75
2022-10-11T14:05:40.418Z,900.00
2022-10-11T14:06:40.414Z,472.50
2022-10-11T14:08:05.452Z,461.25
2022-10-11T14:12:54.112Z,1113.75
2022-10-11T14:13:54.110Z,1642.50
2022-10-11T14:14:54.059Z,1755.00
2022-10-11T14:15:54.065Z,1805.63
2022-10-11T14:16:54.049Z,1845.00
2022-10-11T14:17:54.025Z,1935.00
2022-10-11T14:18:54.013Z,1946.25
2022-10-11T14:19:53.994Z,1828.13
2022-10-11T14:20:53.982Z,1766.25
2022-10-11T14:21:53.972Z,1766.25
2022-10-11T14:22:53.989Z,1755.00
2022-10-11T14:23:53.933Z,1738.13
2022-10-11T14:24:53.929Z,1940.63
2022-10-11T14:25:53.906Z,1805.63
2022-10-11T14:26:53.966Z,1524.38
2022-10-11T14:27:53.899Z,855.00
2022-10-11T14:28:53.902Z,376.88
2022-10-11T14:30:23.584Z,326.25
2022-10-11T14:30:53.828Z,303.75
2022-10-11T14:31:53.827Z,298.13
2022-10-11T14:32:53.802Z,298.13
